sensor_id;sensor_type;location;lat;lon;timestamp;P1;durP1;ratioP1;P2;durP2;ratioP2
68377;SDS011;55322;48.146;11.516;2022-10-16T00:01:14;7.00;;;1.92;;
68377;SDS011;55322;48.146;11.516;2022-10-16T00:03:41;7.72;;;2.30;;
68377;SDS011;55322;48.146;11.516;2022-10-16T00:06:08;7.95;;;2.00;;
68377;SDS011;55322;48.146;11.516;2022-10-16T00:08:35;6.27;;;2.20;;
68377;SDS011;55322;48.146;11.516;2022-10-16T00:11:05;6.32;;;2.20;;
68377;SDS011;55322;48.146;11.516;2022-10-16T00:13:36;7.63;;;2.00;;
68377;SDS011;55322;48.146;11.516;2022-10-16T00:16:04;5.63;;;2.00;;
68377;SDS011;55322;48.146;11.516;2022-10-16T00:18:30;7.50;;;2.00;;
68377;SDS011;55322;48.146;11.516;2022-10-16T00:20:55;7.53;;;2.20;;
68377;SDS011;55322;48.146;11.516;2022-10-16T00:23:26;7.05;;;2.03;;
68377;SDS011;55322;48.146;11.516;2022-10-16T00:25:55;7.33;;;2.27;;
68377;SDS011;55322;48.146;11.516;2022-10-16T00:28:25;7.18;;;1.90;;
68377;SDS011;55322;48.146;11.516;2022-10-16T00:30:51;6.43;;;2.00;;
68377;SDS011;55322;48.146;11.516;2022-10-16T00:33:16;6.80;;;1.93;;
68377;SDS011;55322;48.146;11.516;2022-10-16T00:35:42;5.67;;;1.93;;
68377;SDS011;55322;48.146;11.516;2022-10-16T00:38:07;5.77;;;1.70;;
68377;SDS011;55322;48.146;11.516;2022-10-16T00:40:32;5.77;;;1.80;;
68377;SDS011;55322;48.146;11.516;2022-10-16T00:42:58;5.93;;;1.90;;
68377;SDS011;55322;48.146;11.516;2022-10-16T00:45:23;5.40;;;1.53;;
68377;SDS011;55322;48.146;11.516;2022-10-16T00:47:49;6.65;;;1.88;;
68377;SDS011;55322;48.146;11.516;2022-10-16T00:52:54;6.05;;;1.40;;
68377;SDS011;55322;48.146;11.516;2022-10-16T00:55:20;8.80;;;1.70;;
68377;SDS011;55322;48.146;11.516;2022-10-16T00:57:46;6.40;;;1.60;;
68377;SDS011;55322;48.146;11.516;2022-10-16T01:00:14;6.82;;;1.50;;
68377;SDS011;55322;48.146;11.516;2022-10-16T01:02:42;5.45;;;1.50;;
68377;SDS011;55322;48.146;11.516;2022-10-16T01:05:08;6.20;;;1.63;;
68377;SDS011;55322;48.146;11.516;2022-10-16T01:13:07;5.27;;;1.27;;
68377;SDS011;55322;48.146;11.516;2022-10-16T01:20:33;6.57;;;1.20;;
68377;SDS011;55322;48.146;11.516;2022-10-16T01:28:49;5.07;;;1.42;;
68377;SDS011;55322;48.146;11.516;2022-10-16T01:31:20;4.68;;;1.20;;
68377;SDS011;55322;48.146;11.516;2022-10-16T01:34:00;4.60;;;1.20;;
68377;SDS011;55322;48.146;11.516;2022-10-16T01:36:41;6.68;;;1.38;;
68377;SDS011;55322;48.146;11.516;2022-10-16T01:39:14;5.13;;;1.20;;
68377;SDS011;55322;48.146;11.516;2022-10-16T01:41:48;7.45;;;1.10;;
68377;SDS011;55322;48.146;11.516;2022-10-16T01:44:20;4.63;;;1.10;;
68377;SDS011;55322;48.146;11.516;2022-10-16T01:46:50;4.65;;;1.30;;
68377;SDS011;55322;48.146;11.516;2022-10-16T01:49:17;5.05;;;1.40;;
68377;SDS011;55322;48.146;11.516;2022-10-16T01:51:45;5.63;;;1.13;;
68377;SDS011;55322;48.146;11.516;2022-10-16T01:54:13;4.90;;;1.10;;
68377;SDS011;55322;48.146;11.516;2022-10-16T01:56:41;5.53;;;1.10;;
68377;SDS011;55322;48.146;11.516;2022-10-16T01:59:14;5.72;;;0.98;;
68377;SDS011;55322;48.146;11.516;2022-10-16T02:01:45;5.90;;;1.17;;
68377;SDS011;55322;48.146;11.516;2022-10-16T02:04:16;4.50;;;1.00;;
68377;SDS011;55322;48.146;11.516;2022-10-16T02:06:45;4.57;;;1.05;;
68377;SDS011;55322;48.146;11.516;2022-10-16T02:09:10;5.90;;;0.97;;
68377;SDS011;55322;48.146;11.516;2022-10-16T02:11:36;7.00;;;1.20;;
68377;SDS011;55322;48.146;11.516;2022-10-16T02:14:02;6.40;;;1.10;;
68377;SDS011;55322;48.146;11.516;2022-10-16T02:19:06;4.70;;;1.03;;
68377;SDS011;55322;48.146;11.516;2022-10-16T02:21:39;4.95;;;1.10;;
68377;SDS011;55322;48.146;11.516;2022-10-16T02:29:47;4.82;;;1.13;;
68377;SDS011;55322;48.146;11.516;2022-10-16T02:32:19;4.47;;;1.00;;
68377;SDS011;55322;48.146;11.516;2022-10-16T02:34:48;4.75;;;0.90;;
68377;SDS011;55322;48.146;11.516;2022-10-16T02:37:15;4.20;;;1.00;;
68377;SDS011;55322;48.146;11.516;2022-10-16T02:39:42;5.05;;;0.98;;
68377;SDS011;55322;48.146;11.516;2022-10-16T02:42:11;6.77;;;0.90;;
68377;SDS011;55322;48.146;11.516;2022-10-16T02:44:38;6.18;;;1.00;;
68377;SDS011;55322;48.146;11.516;2022-10-16T02:47:03;4.27;;;0.80;;
68377;SDS011;55322;48.146;11.516;2022-10-16T02:49:28;3.60;;;0.80;;
68377;SDS011;55322;48.146;11.516;2022-10-16T02:51:54;5.07;;;0.93;;
68377;SDS011;55322;48.146;11.516;2022-10-16T02:54:19;4.97;;;0.88;;
68377;SDS011;55322;48.146;11.516;2022-10-16T02:56:45;5.50;;;1.00;;
68377;SDS011;55322;48.146;11.516;2022-10-16T02:59:10;4.50;;;0.93;;
68377;SDS011;55322;48.146;11.516;2022-10-16T03:01:35;6.00;;;0.93;;
68377;SDS011;55322;48.146;11.516;2022-10-16T03:04:00;6.23;;;0.70;;
68377;SDS011;55322;48.146;11.516;2022-10-16T03:06:26;4.33;;;1.00;;
68377;SDS011;55322;48.146;11.516;2022-10-16T03:08:51;4.27;;;1.10;;
68377;SDS011;55322;48.146;11.516;2022-10-16T03:11:16;4.30;;;1.07;;
68377;SDS011;55322;48.146;11.516;2022-10-16T03:13:42;4.55;;;0.90;;
68377;SDS011;55322;48.146;11.516;2022-10-16T03:16:07;6.40;;;0.90;;
68377;SDS011;55322;48.146;11.516;2022-10-16T03:18:32;4.63;;;0.80;;
68377;SDS011;55322;48.146;11.516;2022-10-16T03:20:58;5.70;;;1.10;;
68377;SDS011;55322;48.146;11.516;2022-10-16T03:23:23;4.40;;;0.83;;
68377;SDS011;55322;48.146;11.516;2022-10-16T03:25:48;4.00;;;0.90;;
68377;SDS011;55322;48.146;11.516;2022-10-16T03:28:14;6.43;;;1.03;;
68377;SDS011;55322;48.146;11.516;2022-10-16T03:30:39;4.40;;;1.10;;
68377;SDS011;55322;48.146;11.516;2022-10-16T03:33:04;6.17;;;1.10;;
68377;SDS011;55322;48.146;11.516;2022-10-16T03:35:31;4.40;;;1.00;;
68377;SDS011;55322;48.146;11.516;2022-10-16T03:37:57;6.05;;;1.02;;
68377;SDS011;55322;48.146;11.516;2022-10-16T03:40:23;6.27;;;1.10;;
68377;SDS011;55322;48.146;11.516;2022-10-16T03:42:48;4.37;;;1.00;;
68377;SDS011;55322;48.146;11.516;2022-10-16T03:45:13;5.47;;;1.10;;
68377;SDS011;55322;48.146;11.516;2022-10-16T03:47:39;6.10;;;1.13;;
68377;SDS011;55322;48.146;11.516;2022-10-16T03:50:04;5.00;;;1.03;;
68377;SDS011;55322;48.146;11.516;2022-10-16T03:52:30;4.50;;;0.80;;
68377;SDS011;55322;48.146;11.516;2022-10-16T03:54:56;3.90;;;0.80;;
68377;SDS011;55322;48.146;11.516;2022-10-16T03:57:22;3.63;;;0.80;;
68377;SDS011;55322;48.146;11.516;2022-10-16T03:59:48;4.83;;;0.93;;
68377;SDS011;55322;48.146;11.516;2022-10-16T04:02:13;3.90;;;0.90;;
68377;SDS011;55322;48.146;11.516;2022-10-16T04:04:38;5.03;;;1.00;;
68377;SDS011;55322;48.146;11.516;2022-10-16T04:07:04;4.05;;;0.80;;
68377;SDS011;55322;48.146;11.516;2022-10-16T04:09:29;4.73;;;1.00;;
68377;SDS011;55322;48.146;11.516;2022-10-16T04:11:54;5.50;;;0.93;;
68377;SDS011;55322;48.146;11.516;2022-10-16T04:14:20;6.03;;;1.03;;
68377;SDS011;55322;48.146;11.516;2022-10-16T04:16:45;4.10;;;0.80;;
68377;SDS011;55322;48.146;11.516;2022-10-16T04:19:11;5.03;;;1.20;;
68377;SDS011;55322;48.146;11.516;2022-10-16T04:21:36;5.95;;;1.13;;
68377;SDS011;55322;48.146;11.516;2022-10-16T04:24:02;7.43;;;1.10;;
68377;SDS011;55322;48.146;11.516;2022-10-16T04:26:28;4.40;;;1.00;;
68377;SDS011;55322;48.146;11.516;2022-10-16T04:28:53;4.80;;;1.00;;
68377;SDS011;55322;48.146;11.516;2022-10-16T04:31:19;4.53;;;1.27;;
68377;SDS011;55322;48.146;11.516;2022-10-16T04:33:45;4.70;;;1.00;;
68377;SDS011;55322;48.146;11.516;2022-10-16T04:36:10;6.07;;;1.13;;
68377;SDS011;55322;48.146;11.516;2022-10-16T04:38:36;4.70;;;1.17;;
68377;SDS011;55322;48.146;11.516;2022-10-16T04:41:02;5.83;;;1.00;;
68377;SDS011;55322;48.146;11.516;2022-10-16T04:43:28;4.38;;;1.20;;
68377;SDS011;55322;48.146;11.516;2022-10-16T04:45:53;5.83;;;1.33;;
68377;SDS011;55322;48.146;11.516;2022-10-16T04:48:19;6.20;;;1.00;;
68377;SDS011;55322;48.146;11.516;2022-10-16T04:50:45;5.35;;;1.00;;
68377;SDS011;55322;48.146;11.516;2022-10-16T04:53:11;5.13;;;1.03;;
68377;SDS011;55322;48.146;11.516;2022-10-16T04:55:36;4.80;;;1.20;;
68377;SDS011;55322;48.146;11.516;2022-10-16T04:58:02;4.63;;;1.10;;
68377;SDS011;55322;48.146;11.516;2022-10-16T05:00:28;4.40;;;1.03;;
68377;SDS011;55322;48.146;11.516;2022-10-16T05:02:53;4.97;;;1.20;;
68377;SDS011;55322;48.146;11.516;2022-10-16T05:05:19;5.33;;;1.07;;
68377;SDS011;55322;48.146;11.516;2022-10-16T05:07:45;4.83;;;1.10;;
68377;SDS011;55322;48.146;11.516;2022-10-16T05:10:11;4.90;;;1.00;;
68377;SDS011;55322;48.146;11.516;2022-10-16T05:12:36;9.20;;;1.73;;
68377;SDS011;55322;48.146;11.516;2022-10-16T05:15:01;5.47;;;1.30;;
68377;SDS011;55322;48.146;11.516;2022-10-16T05:17:28;5.43;;;1.23;;
68377;SDS011;55322;48.146;11.516;2022-10-16T05:19:53;6.03;;;1.00;;
68377;SDS011;55322;48.146;11.516;2022-10-16T05:22:19;6.35;;;1.30;;
68377;SDS011;55322;48.146;11.516;2022-10-16T05:24:44;5.00;;;1.33;;
68377;SDS011;55322;48.146;11.516;2022-10-16T05:27:09;4.57;;;1.23;;
68377;SDS011;55322;48.146;11.516;2022-10-16T05:29:36;4.93;;;1.20;;
68377;SDS011;55322;48.146;11.516;2022-10-16T05:32:01;5.60;;;1.20;;
68377;SDS011;55322;48.146;11.516;2022-10-16T05:34:27;5.07;;;1.27;;
68377;SDS011;55322;48.146;11.516;2022-10-16T05:36:52;4.85;;;1.23;;
68377;SDS011;55322;48.146;11.516;2022-10-16T05:39:18;6.47;;;1.40;;
68377;SDS011;55322;48.146;11.516;2022-10-16T05:41:43;4.73;;;1.13;;
68377;SDS011;55322;48.146;11.516;2022-10-16T05:44:09;5.35;;;1.20;;
68377;SDS011;55322;48.146;11.516;2022-10-16T05:46:34;5.30;;;1.23;;
68377;SDS011;55322;48.146;11.516;2022-10-16T05:49:00;5.47;;;1.10;;
68377;SDS011;55322;48.146;11.516;2022-10-16T05:51:25;5.90;;;1.53;;
68377;SDS011;55322;48.146;11.516;2022-10-16T05:53:51;5.33;;;1.20;;
68377;SDS011;55322;48.146;11.516;2022-10-16T05:56:17;4.90;;;1.27;;
68377;SDS011;55322;48.146;11.516;2022-10-16T05:58:42;6.60;;;1.23;;
68377;SDS011;55322;48.146;11.516;2022-10-16T06:03:36;4.60;;;1.23;;
68377;SDS011;55322;48.146;11.516;2022-10-16T06:06:08;5.78;;;1.30;;
68377;SDS011;55322;48.146;11.516;2022-10-16T06:08:38;6.68;;;1.40;;
68377;SDS011;55322;48.146;11.516;2022-10-16T06:11:05;5.10;;;1.33;;
68377;SDS011;55322;48.146;11.516;2022-10-16T06:13:32;5.15;;;1.20;;
68377;SDS011;55322;48.146;11.516;2022-10-16T06:15:58;4.80;;;1.30;;
68377;SDS011;55322;48.146;11.516;2022-10-16T06:18:24;5.70;;;1.47;;
68377;SDS011;55322;48.146;11.516;2022-10-16T06:20:50;5.63;;;1.25;;
68377;SDS011;55322;48.146;11.516;2022-10-16T06:23:16;6.63;;;1.20;;
68377;SDS011;55322;48.146;11.516;2022-10-16T06:25:41;6.93;;;1.47;;
68377;SDS011;55322;48.146;11.516;2022-10-16T06:28:06;5.90;;;1.40;;
68377;SDS011;55322;48.146;11.516;2022-10-16T06:30:32;6.03;;;1.30;;
68377;SDS011;55322;48.146;11.516;2022-10-16T06:32:57;5.33;;;1.40;;
68377;SDS011;55322;48.146;11.516;2022-10-16T06:35:22;5.80;;;1.43;;
68377;SDS011;55322;48.146;11.516;2022-10-16T06:37:48;5.40;;;1.50;;
68377;SDS011;55322;48.146;11.516;2022-10-16T06:40:14;4.50;;;1.40;;
68377;SDS011;55322;48.146;11.516;2022-10-16T06:42:39;6.07;;;1.53;;
68377;SDS011;55322;48.146;11.516;2022-10-16T06:45:05;6.00;;;1.42;;
68377;SDS011;55322;48.146;11.516;2022-10-16T06:47:31;7.35;;;1.38;;
68377;SDS011;55322;48.146;11.516;2022-10-16T06:49:56;4.70;;;1.47;;
68377;SDS011;55322;48.146;11.516;2022-10-16T06:52:22;10.03;;;4.77;;
68377;SDS011;55322;48.146;11.516;2022-10-16T06:54:47;8.07;;;1.80;;
68377;SDS011;55322;48.146;11.516;2022-10-16T06:57:12;5.37;;;1.50;;
68377;SDS011;55322;48.146;11.516;2022-10-16T06:59:38;6.17;;;1.70;;
68377;SDS011;55322;48.146;11.516;2022-10-16T07:02:03;5.17;;;1.70;;
68377;SDS011;55322;48.146;11.516;2022-10-16T07:04:28;5.80;;;1.40;;
68377;SDS011;55322;48.146;11.516;2022-10-16T07:06:53;8.40;;;1.80;;
68377;SDS011;55322;48.146;11.516;2022-10-16T07:09:19;5.67;;;1.67;;
68377;SDS011;55322;48.146;11.516;2022-10-16T07:11:44;5.00;;;1.50;;
68377;SDS011;55322;48.146;11.516;2022-10-16T07:14:16;7.20;;;1.93;;
68377;SDS011;55322;48.146;11.516;2022-10-16T07:16:43;7.50;;;1.58;;
68377;SDS011;55322;48.146;11.516;2022-10-16T07:19:08;5.63;;;1.83;;
68377;SDS011;55322;48.146;11.516;2022-10-16T07:21:34;6.07;;;1.70;;
68377;SDS011;55322;48.146;11.516;2022-10-16T07:24:03;6.40;;;1.50;;
68377;SDS011;55322;48.146;11.516;2022-10-16T07:26:30;5.65;;;1.55;;
68377;SDS011;55322;48.146;11.516;2022-10-16T07:28:58;5.33;;;1.50;;
68377;SDS011;55322;48.146;11.516;2022-10-16T07:31:23;5.07;;;1.50;;
68377;SDS011;55322;48.146;11.516;2022-10-16T07:33:49;5.57;;;1.67;;
68377;SDS011;55322;48.146;11.516;2022-10-16T07:36:16;5.60;;;1.85;;
68377;SDS011;55322;48.146;11.516;2022-10-16T07:38:44;6.13;;;1.67;;
68377;SDS011;55322;48.146;11.516;2022-10-16T07:41:17;6.72;;;1.60;;
68377;SDS011;55322;48.146;11.516;2022-10-16T07:43:47;5.47;;;1.50;;
68377;SDS011;55322;48.146;11.516;2022-10-16T07:46:17;8.45;;;1.65;;
68377;SDS011;55322;48.146;11.516;2022-10-16T07:48:44;6.00;;;1.77;;
68377;SDS011;55322;48.146;11.516;2022-10-16T07:51:12;5.43;;;1.60;;
68377;SDS011;55322;48.146;11.516;2022-10-16T07:53:38;6.05;;;1.80;;
68377;SDS011;55322;48.146;11.516;2022-10-16T07:56:04;7.23;;;1.77;;
68377;SDS011;55322;48.146;11.516;2022-10-16T07:58:31;4.97;;;1.60;;
68377;SDS011;55322;48.146;11.516;2022-10-16T08:00:58;7.13;;;1.83;;
68377;SDS011;55322;48.146;11.516;2022-10-16T08:03:24;5.93;;;2.00;;
68377;SDS011;55322;48.146;11.516;2022-10-16T08:05:50;5.32;;;1.70;;
68377;SDS011;55322;48.146;11.516;2022-10-16T08:08:15;4.90;;;1.70;;
68377;SDS011;55322;48.146;11.516;2022-10-16T08:10:42;4.97;;;1.70;;
68377;SDS011;55322;48.146;11.516;2022-10-16T08:13:08;5.17;;;1.70;;
68377;SDS011;55322;48.146;11.516;2022-10-16T08:15:34;5.60;;;2.00;;
68377;SDS011;55322;48.146;11.516;2022-10-16T08:18:00;6.83;;;1.70;;
68377;SDS011;55322;48.146;11.516;2022-10-16T08:20:27;7.05;;;1.70;;
68377;SDS011;55322;48.146;11.516;2022-10-16T08:22:53;4.68;;;1.65;;
68377;SDS011;55322;48.146;11.516;2022-10-16T08:25:19;4.50;;;1.50;;
68377;SDS011;55322;48.146;11.516;2022-10-16T08:27:45;4.43;;;1.40;;
68377;SDS011;55322;48.146;11.516;2022-10-16T08:30:11;6.23;;;1.87;;
68377;SDS011;55322;48.146;11.516;2022-10-16T08:32:36;6.65;;;1.90;;
68377;SDS011;55322;48.146;11.516;2022-10-16T08:35:02;5.77;;;1.80;;
68377;SDS011;55322;48.146;11.516;2022-10-16T08:37:30;5.00;;;1.63;;
68377;SDS011;55322;48.146;11.516;2022-10-16T08:39:57;5.65;;;1.80;;
68377;SDS011;55322;48.146;11.516;2022-10-16T08:42:31;5.20;;;1.80;;
68377;SDS011;55322;48.146;11.516;2022-10-16T08:50:35;5.93;;;1.60;;
68377;SDS011;55322;48.146;11.516;2022-10-16T08:53:03;7.22;;;1.77;;
68377;SDS011;55322;48.146;11.516;2022-10-16T08:55:32;7.47;;;1.58;;
68377;SDS011;55322;48.146;11.516;2022-10-16T08:57:59;4.60;;;1.60;;
68377;SDS011;55322;48.146;11.516;2022-10-16T09:00:25;5.63;;;1.90;;
68377;SDS011;55322;48.146;11.516;2022-10-16T09:03:02;5.90;;;1.90;;
68377;SDS011;55322;48.146;11.516;2022-10-16T09:10:52;5.60;;;1.73;;
68377;SDS011;55322;48.146;11.516;2022-10-16T09:13:27;5.28;;;1.70;;
68377;SDS011;55322;48.146;11.516;2022-10-16T09:16:18;5.17;;;1.50;;
68377;SDS011;55322;48.146;11.516;2022-10-16T09:21:25;5.63;;;1.83;;
68377;SDS011;55322;48.146;11.516;2022-10-16T09:23:54;6.15;;;1.80;;
68377;SDS011;55322;48.146;11.516;2022-10-16T09:26:23;4.63;;;1.60;;
68377;SDS011;55322;48.146;11.516;2022-10-16T09:28:48;6.03;;;2.20;;
68377;SDS011;55322;48.146;11.516;2022-10-16T09:31:17;6.22;;;1.63;;
68377;SDS011;55322;48.146;11.516;2022-10-16T09:33:45;5.75;;;1.60;;
68377;SDS011;55322;48.146;11.516;2022-10-16T09:36:15;6.60;;;1.80;;
68377;SDS011;55322;48.146;11.516;2022-10-16T09:38:43;4.72;;;1.70;;
68377;SDS011;55322;48.146;11.516;2022-10-16T09:46:25;4.97;;;1.92;;
68377;SDS011;55322;48.146;11.516;2022-10-16T09:48:51;7.43;;;1.70;;
68377;SDS011;55322;48.146;11.516;2022-10-16T09:51:27;5.38;;;1.70;;
68377;SDS011;55322;48.146;11.516;2022-10-16T09:53:55;6.30;;;1.70;;
68377;SDS011;55322;48.146;11.516;2022-10-16T09:56:24;5.35;;;1.80;;
68377;SDS011;55322;48.146;11.516;2022-10-16T09:58:52;5.20;;;1.98;;
68377;SDS011;55322;48.146;11.516;2022-10-16T10:01:18;6.47;;;1.80;;
68377;SDS011;55322;48.146;11.516;2022-10-16T10:03:45;4.95;;;1.80;;
68377;SDS011;55322;48.146;11.516;2022-10-16T10:08:56;5.00;;;1.65;;
68377;SDS011;55322;48.146;11.516;2022-10-16T10:11:42;5.60;;;1.70;;
68377;SDS011;55322;48.146;11.516;2022-10-16T10:14:17;5.55;;;1.85;;
68377;SDS011;55322;48.146;11.516;2022-10-16T10:16:45;5.53;;;1.80;;
68377;SDS011;55322;48.146;11.516;2022-10-16T10:19:15;6.27;;;1.57;;
68377;SDS011;55322;48.146;11.516;2022-10-16T10:21:48;5.15;;;1.50;;
68377;SDS011;55322;48.146;11.516;2022-10-16T10:24:16;4.30;;;1.50;;
68377;SDS011;55322;48.146;11.516;2022-10-16T10:26:57;6.13;;;1.48;;
68377;SDS011;55322;48.146;11.516;2022-10-16T10:29:42;6.47;;;1.45;;
68377;SDS011;55322;48.146;11.516;2022-10-16T10:35:04;4.35;;;1.42;;
68377;SDS011;55322;48.146;11.516;2022-10-16T10:46:58;6.10;;;1.60;;
68377;SDS011;55322;48.146;11.516;2022-10-16T10:49:14;6.00;;;1.50;;
68377;SDS011;55322;48.146;11.516;2022-10-16T10:54:39;5.60;;;1.83;;
68377;SDS011;55322;48.146;11.516;2022-10-16T10:57:21;5.40;;;1.70;;
68377;SDS011;55322;48.146;11.516;2022-10-16T11:00:03;4.57;;;1.63;;
68377;SDS011;55322;48.146;11.516;2022-10-16T11:02:50;6.38;;;1.50;;
68377;SDS011;55322;48.146;11.516;2022-10-16T11:05:28;4.32;;;1.55;;
68377;SDS011;55322;48.146;11.516;2022-10-16T11:15:57;6.20;;;1.60;;
68377;SDS011;55322;48.146;11.516;2022-10-16T11:21:24;5.15;;;1.63;;
68377;SDS011;55322;48.146;11.516;2022-10-16T11:23:57;5.77;;;1.50;;
68377;SDS011;55322;48.146;11.516;2022-10-16T11:26:35;5.57;;;1.60;;
68377;SDS011;55322;48.146;11.516;2022-10-16T11:29:08;4.60;;;1.20;;
68377;SDS011;55322;48.146;11.516;2022-10-16T11:31:45;6.00;;;1.52;;
68377;SDS011;55322;48.146;11.516;2022-10-16T11:40:28;4.20;;;1.20;;
68377;SDS011;55322;48.146;11.516;2022-10-16T11:43:01;4.30;;;1.00;;
68377;SDS011;55322;48.146;11.516;2022-10-16T11:45:36;4.72;;;1.20;;
68377;SDS011;55322;48.146;11.516;2022-10-16T11:48:24;4.00;;;1.10;;
68377;SDS011;55322;48.146;11.516;2022-10-16T11:56:41;3.73;;;0.83;;
68377;SDS011;55322;48.146;11.516;2022-10-16T12:01:44;5.40;;;1.05;;
68377;SDS011;55322;48.146;11.516;2022-10-16T12:04:19;5.12;;;0.90;;
68377;SDS011;55322;48.146;11.516;2022-10-16T12:06:57;5.45;;;1.10;;
68377;SDS011;55322;48.146;11.516;2022-10-16T12:09:29;4.83;;;0.80;;
68377;SDS011;55322;48.146;11.516;2022-10-16T12:11:56;4.55;;;1.20;;
68377;SDS011;55322;48.146;11.516;2022-10-16T12:16:54;5.43;;;1.10;;
68377;SDS011;55322;48.146;11.516;2022-10-16T12:19:21;4.57;;;1.00;;
68377;SDS011;55322;48.146;11.516;2022-10-16T12:21:48;6.28;;;1.30;;
68377;SDS011;55322;48.146;11.516;2022-10-16T12:27:06;4.95;;;1.02;;
68377;SDS011;55322;48.146;11.516;2022-10-16T12:29:46;5.07;;;1.27;;
68377;SDS011;55322;48.146;11.516;2022-10-16T12:32:45;4.20;;;0.90;;
68377;SDS011;55322;48.146;11.516;2022-10-16T12:35:04;4.63;;;0.80;;
68377;SDS011;55322;48.146;11.516;2022-10-16T12:37:42;4.00;;;0.90;;
68377;SDS011;55322;48.146;11.516;2022-10-16T12:40:13;4.03;;;1.00;;
68377;SDS011;55322;48.146;11.516;2022-10-16T12:42:48;3.67;;;0.90;;
68377;SDS011;55322;48.146;11.516;2022-10-16T12:48:18;13.20;;;6.90;;
68377;SDS011;55322;48.146;11.516;2022-10-16T12:50:46;58.87;;;36.43;;
68377;SDS011;55322;48.146;11.516;2022-10-16T12:53:23;12.50;;;7.10;;
68377;SDS011;55322;48.146;11.516;2022-10-16T12:56:04;4.55;;;1.00;;
68377;SDS011;55322;48.146;11.516;2022-10-16T13:01:16;9.57;;;1.48;;
68377;SDS011;55322;48.146;11.516;2022-10-16T13:03:58;9.45;;;3.60;;
68377;SDS011;55322;48.146;11.516;2022-10-16T13:06:39;4.85;;;1.15;;
68377;SDS011;55322;48.146;11.516;2022-10-16T13:12:18;3.97;;;0.80;;
68377;SDS011;55322;48.146;11.516;2022-10-16T13:23:03;17.73;;;8.35;;
68377;SDS011;55322;48.146;11.516;2022-10-16T13:25:36;3.90;;;0.80;;
68377;SDS011;55322;48.146;11.516;2022-10-16T13:28:05;6.22;;;1.73;;
68377;SDS011;55322;48.146;11.516;2022-10-16T13:30:40;10.13;;;3.63;;
68377;SDS011;55322;48.146;11.516;2022-10-16T13:33:12;4.35;;;1.40;;
68377;SDS011;55322;48.146;11.516;2022-10-16T13:35:48;12.82;;;8.07;;
68377;SDS011;55322;48.146;11.516;2022-10-16T13:38:19;7.13;;;3.27;;
68377;SDS011;55322;48.146;11.516;2022-10-16T13:41:02;6.35;;;2.35;;
68377;SDS011;55322;48.146;11.516;2022-10-16T13:46:12;3.72;;;1.02;;
68377;SDS011;55322;48.146;11.516;2022-10-16T13:48:41;4.53;;;1.50;;
68377;SDS011;55322;48.146;11.516;2022-10-16T13:51:15;5.30;;;1.27;;
68377;SDS011;55322;48.146;11.516;2022-10-16T13:53:41;29.13;;;19.75;;
68377;SDS011;55322;48.146;11.516;2022-10-16T13:56:15;28.27;;;20.88;;
68377;SDS011;55322;48.146;11.516;2022-10-16T13:58:42;14.20;;;8.55;;
68377;SDS011;55322;48.146;11.516;2022-10-16T14:01:41;4.83;;;1.60;;
68377;SDS011;55322;48.146;11.516;2022-10-16T14:04:07;5.07;;;1.45;;
68377;SDS011;55322;48.146;11.516;2022-10-16T14:06:34;3.95;;;0.95;;
68377;SDS011;55322;48.146;11.516;2022-10-16T14:09:05;5.95;;;0.95;;
68377;SDS011;55322;48.146;11.516;2022-10-16T14:11:33;9.93;;;4.13;;
68377;SDS011;55322;48.146;11.516;2022-10-16T14:14:09;15.47;;;9.10;;
68377;SDS011;55322;48.146;11.516;2022-10-16T14:16:36;13.20;;;6.65;;
68377;SDS011;55322;48.146;11.516;2022-10-16T14:19:05;4.30;;;1.15;;
68377;SDS011;55322;48.146;11.516;2022-10-16T14:21:31;5.15;;;0.93;;
68377;SDS011;55322;48.146;11.516;2022-10-16T14:23:58;8.00;;;2.07;;
68377;SDS011;55322;48.146;11.516;2022-10-16T14:26:26;5.50;;;1.40;;
68377;SDS011;55322;48.146;11.516;2022-10-16T14:29:10;5.03;;;1.10;;
68377;SDS011;55322;48.146;11.516;2022-10-16T14:31:37;4.67;;;0.90;;
68377;SDS011;55322;48.146;11.516;2022-10-16T14:34:04;4.15;;;0.73;;
68377;SDS011;55322;48.146;11.516;2022-10-16T14:36:30;3.40;;;0.70;;
68377;SDS011;55322;48.146;11.516;2022-10-16T14:39:03;4.60;;;0.70;;
68377;SDS011;55322;48.146;11.516;2022-10-16T14:41:31;3.58;;;0.70;;
68377;SDS011;55322;48.146;11.516;2022-10-16T14:44:04;7.53;;;3.20;;
68377;SDS011;55322;48.146;11.516;2022-10-16T14:46:34;35.67;;;19.88;;
68377;SDS011;55322;48.146;11.516;2022-10-16T14:49:03;33.15;;;19.67;;
68377;SDS011;55322;48.146;11.516;2022-10-16T14:51:40;37.42;;;21.90;;
68377;SDS011;55322;48.146;11.516;2022-10-16T14:54:07;61.88;;;39.00;;
68377;SDS011;55322;48.146;11.516;2022-10-16T14:56:35;178.23;;;103.17;;
68377;SDS011;55322;48.146;11.516;2022-10-16T14:59:07;314.30;;;176.45;;
68377;SDS011;55322;48.146;11.516;2022-10-16T15:01:42;247.82;;;131.32;;
68377;SDS011;55322;48.146;11.516;2022-10-16T15:04:09;104.93;;;57.67;;
68377;SDS011;55322;48.146;11.516;2022-10-16T15:06:36;42.78;;;26.02;;
68377;SDS011;55322;48.146;11.516;2022-10-16T15:09:02;45.27;;;26.57;;
68377;SDS011;55322;48.146;11.516;2022-10-16T15:11:27;25.57;;;13.00;;
68377;SDS011;55322;48.146;11.516;2022-10-16T15:13:53;28.17;;;11.37;;
68377;SDS011;55322;48.146;11.516;2022-10-16T15:16:18;45.60;;;15.25;;
68377;SDS011;55322;48.146;11.516;2022-10-16T15:18:43;41.87;;;22.37;;
68377;SDS011;55322;48.146;11.516;2022-10-16T15:21:13;37.60;;;24.27;;
68377;SDS011;55322;48.146;11.516;2022-10-16T15:23:48;42.33;;;28.02;;
68377;SDS011;55322;48.146;11.516;2022-10-16T15:26:15;37.00;;;23.60;;
68377;SDS011;55322;48.146;11.516;2022-10-16T15:28:40;23.45;;;12.25;;
68377;SDS011;55322;48.146;11.516;2022-10-16T15:31:06;13.43;;;6.70;;
68377;SDS011;55322;48.146;11.516;2022-10-16T15:33:31;16.60;;;9.23;;
68377;SDS011;55322;48.146;11.516;2022-10-16T15:35:59;32.33;;;19.10;;
68377;SDS011;55322;48.146;11.516;2022-10-16T15:38:25;53.07;;;31.33;;
68377;SDS011;55322;48.146;11.516;2022-10-16T15:40:51;31.50;;;14.63;;
68377;SDS011;55322;48.146;11.516;2022-10-16T15:43:17;54.97;;;33.90;;
68377;SDS011;55322;48.146;11.516;2022-10-16T15:45:43;42.03;;;26.70;;
68377;SDS011;55322;48.146;11.516;2022-10-16T15:48:13;23.73;;;13.18;;
68377;SDS011;55322;48.146;11.516;2022-10-16T15:50:38;19.50;;;10.13;;
68377;SDS011;55322;48.146;11.516;2022-10-16T15:53:04;22.30;;;10.67;;
68377;SDS011;55322;48.146;11.516;2022-10-16T15:55:29;14.77;;;6.50;;
68377;SDS011;55322;48.146;11.516;2022-10-16T15:57:55;19.47;;;4.57;;
68377;SDS011;55322;48.146;11.516;2022-10-16T16:00:20;15.33;;;3.47;;
68377;SDS011;55322;48.146;11.516;2022-10-16T16:02:51;23.95;;;10.68;;
68377;SDS011;55322;48.146;11.516;2022-10-16T16:05:18;27.65;;;15.68;;
68377;SDS011;55322;48.146;11.516;2022-10-16T16:07:44;47.33;;;23.40;;
68377;SDS011;55322;48.146;11.516;2022-10-16T16:10:10;33.00;;;17.48;;
68377;SDS011;55322;48.146;11.516;2022-10-16T16:12:36;39.80;;;24.98;;
68377;SDS011;55322;48.146;11.516;2022-10-16T16:15:02;37.57;;;20.37;;
68377;SDS011;55322;48.146;11.516;2022-10-16T16:17:32;38.10;;;24.92;;
68377;SDS011;55322;48.146;11.516;2022-10-16T16:19:58;40.13;;;23.20;;
68377;SDS011;55322;48.146;11.516;2022-10-16T16:22:23;38.30;;;23.10;;
68377;SDS011;55322;48.146;11.516;2022-10-16T16:24:49;37.43;;;22.60;;
68377;SDS011;55322;48.146;11.516;2022-10-16T16:27:14;16.80;;;8.13;;
68377;SDS011;55322;48.146;11.516;2022-10-16T16:29:39;20.43;;;11.10;;
68377;SDS011;55322;48.146;11.516;2022-10-16T16:32:05;16.73;;;9.57;;
68377;SDS011;55322;48.146;11.516;2022-10-16T16:34:30;17.70;;;7.80;;